Time;durP1;ratioP1;P1;durP2;ratioP2;P2;SDS_P1;SDS_P2;PMS_P1;PMS_P2;Temp;Humidity;BMP_temperature;BMP_pressure;BME280_temperature;BME280_humidity;BME280_pressure;Samples;Min_cycle;Max_cycle;Signal;HPM_P1;HPM_P2
2022/07/14 00:02:28;;;;;;;1.50;1.40;;;24.40;24.10;;;;;;10438588;28;20240;-74
2022/07/14 00:07:31;;;;;;;2.10;1.50;;;24.30;25.00;;;;;;10438050;28;20237;-74
2022/07/14 00:12:34;;;;;;;2.40;1.40;;;24.20;24.40;;;;;;10436801;28;20221;-74
2022/07/14 00:17:39;;;;;;;3.00;1.40;;;24.20;24.60;;;;;;10441136;28;20225;-74
2022/07/14 00:22:42;;;;;;;1.60;1.50;;;24.20;25.10;;;;;;10439587;28;20232;-74
2022/07/14 00:27:46;;;;;;;2.27;1.53;;;24.10;25.00;;;;;;10437963;28;20591;-74
2022/07/14 00:32:51;;;;;;;1.53;1.10;;;24.00;25.00;;;;;;10433424;28;20225;-74
2022/07/14 00:37:54;;;;;;;1.30;1.20;;;23.90;25.40;;;;;;10442033;28;20244;-74
2022/07/14 00:42:57;;;;;;;1.87;1.70;;;23.80;25.20;;;;;;10437909;28;20225;-73
2022/07/14 00:48:01;;;;;;;3.00;1.60;;;23.60;25.40;;;;;;10439894;28;20300;-74
2022/07/14 00:53:08;;;;;;;2.20;1.30;;;23.40;25.80;;;;;;10438839;28;20221;-73
2022/07/14 00:58:12;;;;;;;1.10;1.00;;;23.30;26.40;;;;;;10439731;28;20228;-74
2022/07/14 01:03:17;;;;;;;1.67;1.57;;;23.20;26.00;;;;;;10439811;28;20221;-73
2022/07/14 01:08:20;;;;;;;1.37;1.27;;;23.20;26.70;;;;;;10437506;28;20225;-74
2022/07/14 01:13:23;;;;;;;2.00;1.50;;;23.20;26.10;;;;;;10443048;28;20229;-74
2022/07/14 01:18:28;;;;;;;1.13;1.13;;;23.10;26.30;;;;;;10434595;28;20268;-73
2022/07/14 01:23:32;;;;;;;1.40;1.30;;;23.10;26.90;;;;;;10439070;28;20228;-74
2022/07/14 01:28:36;;;;;;;1.37;1.27;;;23.00;27.20;;;;;;10432634;28;20240;-74
2022/07/14 01:33:39;;;;;;;1.60;1.50;;;22.90;26.60;;;;;;10430746;28;20896;-74
2022/07/14 01:38:44;;;;;;;1.30;1.20;;;22.90;27.00;;;;;;10439815;28;20221;-74
2022/07/14 01:43:47;;;;;;;2.80;1.60;;;22.70;27.10;;;;;;10433749;28;20225;-73
2022/07/14 01:48:50;;;;;;;3.13;1.53;;;22.60;27.10;;;;;;10432690;28;20232;-74
2022/07/14 01:53:55;;;;;;;1.77;1.67;;;22.60;27.10;;;;;;10436085;28;20229;-74
2022/07/14 01:59:00;;;;;;;2.30;1.47;;;22.60;27.70;;;;;;10440861;28;20251;-73
2022/07/14 02:04:04;;;;;;;2.33;1.60;;;22.60;27.10;;;;;;10439085;28;20304;-74
2022/07/14 02:09:09;;;;;;;1.60;1.50;;;22.60;27.30;;;;;;10435872;28;20233;-74
2022/07/14 02:14:12;;;;;;;1.60;1.50;;;22.60;27.70;;;;;;10438333;28;20225;-73
2022/07/14 02:19:15;;;;;;;1.70;1.60;;;22.70;27.30;;;;;;10426748;28;20231;-74
2022/07/14 02:24:21;;;;;;;1.63;1.53;;;22.60;27.30;;;;;;10430995;28;20235;-73
2022/07/14 02:29:24;;;;;;;1.70;1.60;;;22.50;28.10;;;;;;10440918;28;20573;-74
2022/07/14 02:34:27;;;;;;;1.93;1.60;;;22.50;27.60;;;;;;10434631;28;20228;-74
2022/07/14 02:39:32;;;;;;;2.03;1.70;;;22.50;28.00;;;;;;10435867;28;20233;-74
2022/07/14 02:44:35;;;;;;;1.77;1.30;;;22.50;28.30;;;;;;10435316;28;20232;-73
2022/07/14 02:49:38;;;;;;;1.70;1.60;;;22.50;27.90;;;;;;10437067;28;20612;-74
2022/07/14 02:54:43;;;;;;;1.50;1.40;;;22.40;28.00;;;;;;10431764;28;20221;-74
2022/07/14 02:59:46;;;;;;;1.80;1.70;;;22.40;28.70;;;;;;10431527;28;21025;-74
2022/07/14 03:04:49;;;;;;;1.70;1.60;;;22.40;28.20;;;;;;10432054;28;20586;-74
2022/07/14 03:09:54;;;;;;;4.20;1.70;;;22.40;28.40;;;;;;10429719;28;20228;-74
2022/07/14 03:14:57;;;;;;;3.20;1.63;;;22.40;28.90;;;;;;10439463;28;20225;-74
2022/07/14 03:20:01;;;;;;;2.23;1.60;;;22.40;28.60;;;;;;10436135;28;20220;-73
2022/07/14 03:25:06;;;;;;;2.37;1.47;;;22.40;28.50;;;;;;10439738;28;20217;-74
2022/07/14 03:30:10;;;;;;;1.30;1.30;;;22.30;29.10;;;;;;10441204;28;20239;-74
2022/07/14 03:35:13;;;;;;;1.53;1.43;;;22.30;28.50;;;;;;10445153;28;20229;-74
2022/07/14 03:40:18;;;;;;;2.87;1.60;;;22.30;28.60;;;;;;10445892;28;20969;-74
2022/07/14 03:45:21;;;;;;;1.70;1.60;;;22.30;29.20;;;;;;10442297;28;20237;-74
2022/07/14 03:50:24;;;;;;;2.30;1.77;;;22.30;28.90;;;;;;10440122;28;20233;-74
2022/07/14 03:55:29;;;;;;;2.10;1.83;;;22.20;29.40;;;;;;10435476;28;20243;-74
2022/07/14 04:00:33;;;;;;;4.77;1.73;;;22.20;29.30;;;;;;10443584;28;20311;-74
2022/07/14 04:05:37;;;;;;;3.40;1.93;;;22.00;28.90;;;;;;10433300;28;20710;-74
2022/07/14 04:10:41;;;;;;;3.47;1.90;;;21.90;29.10;;;;;;10440475;28;20719;-74
2022/07/14 04:15:44;;;;;;;4.73;2.00;;;21.80;30.10;;;;;;10443612;28;20221;-74
2022/07/14 04:20:49;;;;;;;4.07;1.80;;;21.80;29.60;;;;;;10433090;28;21193;-74
2022/07/14 04:25:54;;;;;;;3.87;2.47;;;21.70;29.70;;;;;;10437335;28;20226;-74
2022/07/14 04:30:57;;;;;;;3.20;2.37;;;21.60;30.10;;;;;;10438534;28;20217;-74
2022/07/14 04:36:00;;;;;;;5.83;2.47;;;21.50;29.70;;;;;;10435955;28;20220;-74
2022/07/14 04:41:05;;;;;;;3.10;1.93;;;21.40;30.00;;;;;;10440356;28;20895;-73
2022/07/14 04:46:09;;;;;;;2.90;2.10;;;21.30;30.20;;;;;;10437243;28;20262;-73
2022/07/14 04:56:34;;;;;;;4.27;2.03;;;21.20;30.10;;;;;;10435797;28;20224;-73
2022/07/14 05:01:58;;;;;;;2.30;1.80;;;21.20;30.90;;;;;;10433896;28;20224;-73
2022/07/14 05:07:02;;;;;;;4.10;1.83;;;21.30;30.70;;;;;;10432068;28;20221;-72
2022/07/14 05:12:09;;;;;;;2.17;1.97;;;21.30;30.90;;;;;;10436838;28;20595;-73
2022/07/14 05:17:13;;;;;;;6.73;2.03;;;21.40;31.50;;;;;;10438433;28;20696;-73
2022/07/14 05:22:19;;;;;;;7.80;2.07;;;21.50;31.00;;;;;;10432780;28;20307;-73
2022/07/14 05:27:23;;;;;;;3.73;1.97;;;21.60;31.10;;;;;;10431402;28;20233;-73
2022/07/14 05:32:26;;;;;;;7.27;2.10;;;21.80;31.80;;;;;;10439189;28;20237;-73
2022/07/14 05:37:30;;;;;;;1.73;1.63;;;22.00;31.40;;;;;;10438601;28;21668;-73
2022/07/14 05:42:34;;;;;;;2.70;1.90;;;22.20;31.30;;;;;;10437934;28;20278;-73
2022/07/14 05:47:41;;;;;;;1.50;1.40;;;22.40;31.70;;;;;;10431284;28;20249;-74
2022/07/14 05:52:44;;;;;;;1.90;1.70;;;22.70;31.80;;;;;;10437299;28;20229;-74
2022/07/14 05:57:49;;;;;;;1.70;1.60;;;22.90;31.30;;;;;;10438926;28;20865;-74
2022/07/14 06:02:52;;;;;;;1.50;1.40;;;23.20;31.40;;;;;;10438376;28;20232;-74
2022/07/14 06:08:01;;;;;;;1.43;1.37;;;23.40;30.90;;;;;;10436367;28;20220;-74
2022/07/14 06:13:06;;;;;;;3.80;1.70;;;23.70;30.70;;;;;;10430226;28;20313;-73
2022/07/14 06:18:16;;;;;;;1.70;1.60;;;23.90;30.70;;;;;;10439027;28;20252;-74
2022/07/14 06:23:20;;;;;;;1.87;1.60;;;24.20;30.60;;;;;;10431764;28;20252;-74
2022/07/14 06:28:26;;;;;;;1.40;1.30;;;24.50;30.40;;;;;;10431522;28;20221;-74
2022/07/14 06:33:29;;;;;;;1.60;1.50;;;24.70;30.40;;;;;;10428896;28;20720;-74
2022/07/14 06:38:32;;;;;;;1.50;1.40;;;25.00;28.70;;;;;;10422099;28;20319;-73
2022/07/14 06:43:37;;;;;;;1.57;1.47;;;25.20;29.40;;;;;;10425627;28;20235;-73
2022/07/14 06:48:40;;;;;;;1.40;1.33;;;25.60;29.50;;;;;;10427141;28;20225;-73
2022/07/14 06:53:43;;;;;;;1.40;1.30;;;25.80;28.60;;;;;;10424105;28;20229;-73
2022/07/14 06:58:48;;;;;;;2.37;1.30;;;26.00;28.00;;;;;;10429448;28;20251;-74
2022/07/14 07:03:51;;;;;;;1.50;1.40;;;26.20;27.20;;;;;;10428951;28;20847;-74
2022/07/14 07:08:54;;;;;;;1.73;1.47;;;26.50;27.60;;;;;;10432994;28;20238;-74
2022/07/14 07:13:59;;;;;;;1.17;1.17;;;26.70;27.20;;;;;;10425430;28;20224;-74
2022/07/14 07:19:02;;;;;;;1.20;1.20;;;27.00;26.80;;;;;;10433923;28;20217;-74
2022/07/14 07:24:06;;;;;;;1.50;1.40;;;27.10;27.00;;;;;;10431910;28;20693;-74
2022/07/14 07:29:10;;;;;;;1.93;1.10;;;27.30;26.70;;;;;;10435674;28;20252;-74
2022/07/14 07:34:14;;;;;;;1.30;1.30;;;27.50;25.60;;;;;;10434460;28;20701;-74
2022/07/14 07:39:17;;;;;;;1.37;1.27;;;27.70;25.60;;;;;;10423761;28;20232;-74
2022/07/14 07:44:22;;;;;;;1.40;1.30;;;27.90;25.40;;;;;;10431753;28;20291;-74
2022/07/14 07:49:25;;;;;;;1.47;1.37;;;28.10;24.80;;;;;;10430788;28;20260;-74
2022/07/14 07:54:29;;;;;;;1.30;1.20;;;28.30;24.60;;;;;;10435479;28;20713;-74
2022/07/14 07:59:54;;;;;;;1.20;1.20;;;28.50;24.50;;;;;;10428596;28;20720;-73
2022/07/14 08:04:57;;;;;;;1.20;1.10;;;28.80;23.80;;;;;;10437571;28;20228;-74
2022/07/14 08:10:00;;;;;;;1.23;1.23;;;29.10;24.10;;;;;;10438387;28;21792;-74
2022/07/14 08:15:06;;;;;;;1.20;1.10;;;29.30;23.30;;;;;;10430053;28;20220;-74
2022/07/14 08:20:10;;;;;;;1.23;1.20;;;29.50;22.40;;;;;;10433696;28;20225;-74
2022/07/14 08:25:14;;;;;;;1.40;1.30;;;29.80;22.40;;;;;;10437805;28;20232;-74
2022/07/14 08:30:18;;;;;;;1.17;1.10;;;30.00;22.60;;;;;;10438089;28;20233;-74
2022/07/14 08:35:23;;;;;;;1.30;1.20;;;30.20;21.20;;;;;;10440083;28;20749;-74
2022/07/14 08:40:28;;;;;;;1.50;1.40;;;30.50;21.40;;;;;;10439833;28;20243;-74
2022/07/14 08:45:40;;;;;;;2.97;1.43;;;30.70;21.50;;;;;;10428722;28;20229;-74
2022/07/14 08:50:45;;;;;;;3.13;1.33;;;30.90;20.60;;;;;;10435364;28;20612;-70
2022/07/14 08:55:49;;;;;;;1.70;1.60;;;31.10;20.80;;;;;;10440683;28;20945;-74
2022/07/14 09:00:54;;;;;;;1.67;1.30;;;31.30;20.60;;;;;;10428902;28;20749;-73
2022/07/14 09:05:57;;;;;;;2.30;1.60;;;31.50;19.80;;;;;;10437157;28;20212;-74
2022/07/14 09:11:02;;;;;;;1.40;1.30;;;31.70;20.20;;;;;;10432971;28;20228;-74
2022/07/14 09:16:19;;;;;;;1.90;1.30;;;32.00;20.60;;;;;;10434161;28;20252;-74
2022/07/14 09:21:22;;;;;;;1.40;1.30;;;32.30;19.90;;;;;;10430279;28;20272;-74
2022/07/14 09:26:26;;;;;;;1.97;1.30;;;32.50;19.30;;;;;;10428857;28;20231;-74
2022/07/14 09:31:31;;;;;;;1.67;1.30;;;32.70;18.90;;;;;;10427347;28;20229;-74
2022/07/14 09:36:36;;;;;;;1.30;1.20;;;32.80;18.00;;;;;;10429289;28;20709;-74
2022/07/14 09:41:50;;;;;;;2.20;1.27;;;32.90;18.00;;;;;;10428576;28;21004;-73
2022/07/14 09:46:57;;;;;;;1.90;1.80;;;33.00;17.50;;;;;;10425552;28;20229;-74
2022/07/14 09:52:02;;;;;;;1.50;1.40;;;33.20;16.90;;;;;;10424707;28;20231;-75
2022/07/14 09:57:07;;;;;;;1.40;1.30;;;33.30;17.60;;;;;;10430670;28;20612;-74
2022/07/14 10:02:19;;;;;;;1.50;1.40;;;33.50;17.20;;;;;;10430736;28;20229;-74
2022/07/14 10:07:26;;;;;;;1.23;1.23;;;33.60;16.70;;;;;;10432932;28;20727;-75
2022/07/14 10:12:30;;;;;;;1.57;1.47;;;33.70;16.30;;;;;;10433812;28;20726;-75
2022/07/14 10:17:36;;;;;;;2.03;1.30;;;33.80;16.60;;;;;;10429187;28;20785;-72
2022/07/14 10:22:40;;;;;;;1.50;1.40;;;34.00;16.60;;;;;;10428843;28;20227;-72
2022/07/14 10:27:46;;;;;;;1.30;1.20;;;34.20;16.20;;;;;;10426304;28;20816;-72
2022/07/14 10:32:58;;;;;;;1.17;1.13;;;34.30;15.40;;;;;;10432900;28;20232;-73
2022/07/14 10:38:21;;;;;;;1.77;1.30;;;34.40;14.60;;;;;;10432615;28;20220;-73
2022/07/14 10:43:25;;;;;;;1.47;1.37;;;34.50;14.70;;;;;;10430985;28;20241;-72
2022/07/14 10:48:32;;;;;;;1.50;1.40;;;34.60;14.60;;;;;;10433326;28;20322;-72
2022/07/14 10:54:00;;;;;;;1.83;1.30;;;34.70;13.70;;;;;;10430655;28;20230;-72
2022/07/14 10:59:33;;;;;;;2.03;1.37;;;34.80;15.00;;;;;;10429557;28;20241;-72
2022/07/14 11:05:08;;;;;;;1.67;1.30;;;34.90;13.10;;;;;;10432234;28;20258;-71
2022/07/14 11:11:09;;;;;;;2.20;1.40;;;34.90;14.50;;;;;;10431615;28;20231;-72
2022/07/14 11:16:12;;;;;;;1.37;1.20;;;35.00;13.80;;;;;;10422784;28;20235;-72
2022/07/14 11:21:19;;;;;;;1.30;1.30;;;35.10;13.70;;;;;;10427064;28;21049;-72
2022/07/14 11:26:36;;;;;;;1.30;1.20;;;35.20;13.20;;;;;;10429905;28;20240;-72
2022/07/14 11:31:50;;;;;;;2.33;1.30;;;35.30;12.90;;;;;;10429079;28;20227;-73
2022/07/14 11:37:04;;;;;;;1.47;1.37;;;35.40;13.30;;;;;;10436065;28;20242;-72
2022/07/14 11:42:27;;;;;;;1.10;1.10;;;35.40;12.20;;;;;;10433122;28;20233;-71
2022/07/14 11:47:34;;;;;;;1.50;1.40;;;35.50;12.90;;;;;;10432737;28;20232;-72
2022/07/14 11:52:41;;;;;;;1.77;1.30;;;35.50;12.30;;;;;;10434472;28;20308;-71
2022/07/14 11:57:51;;;;;;;1.40;1.30;;;35.50;11.30;;;;;;10435389;28;20304;-71
2022/07/14 12:02:56;;;;;;;1.70;1.57;;;35.50;11.50;;;;;;10433795;28;20289;-72
2022/07/14 12:08:03;;;;;;;2.30;1.37;;;35.60;12.10;;;;;;10431454;28;20221;-72
2022/07/14 12:13:07;;;;;;;1.30;1.30;;;35.60;10.60;;;;;;10439778;28;20236;-71
2022/07/14 12:18:12;;;;;;;1.60;1.50;;;35.50;11.40;;;;;;10437542;28;20769;-72
2022/07/14 12:23:17;;;;;;;1.50;1.40;;;35.50;11.60;;;;;;10434884;28;20861;-72
2022/07/14 12:28:21;;;;;;;3.30;1.37;;;35.60;11.60;;;;;;10434531;28;20704;-72
2022/07/14 12:33:27;;;;;;;1.50;1.40;;;35.70;11.40;;;;;;10431150;28;20228;-72
2022/07/14 12:38:36;;;;;;;1.30;1.30;;;35.80;10.20;;;;;;10434137;28;20234;-72
2022/07/14 12:43:41;;;;;;;1.30;1.20;;;35.90;10.20;;;;;;10440048;28;20226;-73
2022/07/14 12:48:59;;;;;;;2.60;1.33;;;35.90;10.70;;;;;;10436432;28;20574;-71
2022/07/14 12:54:10;;;;;;;1.30;1.30;;;36.00;9.50;;;;;;10435656;28;20229;-72
2022/07/14 12:59:16;;;;;;;1.40;1.30;;;36.00;9.60;;;;;;10434314;28;20255;-72
2022/07/14 13:04:34;;;;;;;3.63;1.50;;;36.10;9.90;;;;;;10435632;28;20320;-72
2022/07/14 13:09:39;;;;;;;1.50;1.40;;;36.10;9.00;;;;;;10426695;28;20328;-72
2022/07/14 13:14:56;;;;;;;1.63;1.27;;;36.10;9.60;;;;;;10430367;28;20230;-74
2022/07/14 13:19:59;;;;;;;2.87;1.40;;;36.10;9.80;;;;;;10421513;28;20227;-74
2022/07/14 13:25:04;;;;;;;1.50;1.40;;;36.20;10.40;;;;;;10432988;28;20231;-74
2022/07/14 13:30:08;;;;;;;1.47;1.17;;;36.20;9.30;;;;;;10432998;28;20228;-74
2022/07/14 13:35:11;;;;;;;1.50;1.40;;;36.40;9.70;;;;;;10435746;28;20239;-74
2022/07/14 13:40:16;;;;;;;1.40;1.30;;;36.40;9.30;;;;;;10432926;28;20232;-74
2022/07/14 13:45:19;;;;;;;1.83;1.40;;;36.40;8.50;;;;;;10434151;28;20228;-75
2022/07/14 13:55:45;;;;;;;1.53;1.43;;;36.20;8.90;;;;;;10433704;28;20220;-74
2022/07/14 14:00:49;;;;;;;5.50;1.67;;;36.10;8.70;;;;;;10434306;28;20228;-74
2022/07/14 14:05:54;;;;;;;1.50;1.40;;;36.10;9.20;;;;;;10436315;28;20332;-75
2022/07/14 14:10:59;;;;;;;1.23;1.20;;;36.10;9.40;;;;;;10429478;28;20231;-74
2022/07/14 14:16:06;;;;;;;1.47;1.37;;;36.20;8.80;;;;;;10430970;28;20275;-74
2022/07/14 14:21:10;;;;;;;1.40;1.30;;;36.20;9.00;;;;;;10429120;28;20236;-74
2022/07/14 14:26:15;;;;;;;1.40;1.30;;;36.30;8.90;;;;;;10434679;28;20243;-73
2022/07/14 14:31:18;;;;;;;2.60;1.27;;;36.30;8.70;;;;;;10429754;28;20244;-74
2022/07/14 14:36:21;;;;;;;1.87;1.57;;;36.30;8.70;;;;;;10424901;28;20244;-74
2022/07/14 14:41:26;;;;;;;1.37;1.27;;;36.20;8.70;;;;;;10429956;28;20228;-74
2022/07/14 14:46:29;;;;;;;1.43;1.30;;;36.20;8.50;;;;;;10432696;28;20232;-74
2022/07/14 14:51:33;;;;;;;1.50;1.40;;;36.20;8.90;;;;;;10428857;28;20236;-74
2022/07/14 14:56:37;;;;;;;1.60;1.30;;;36.10;8.40;;;;;;10429220;28;20249;-74
2022/07/14 15:01:40;;;;;;;1.40;1.40;;;36.00;8.20;;;;;;10432611;28;20232;-74
2022/07/14 15:06:44;;;;;;;3.47;1.40;;;35.90;8.50;;;;;;10422403;28;20691;-74
2022/07/14 15:11:48;;;;;;;1.20;1.20;;;35.70;8.30;;;;;;10432827;28;20221;-74
2022/07/14 15:16:53;;;;;;;1.50;1.40;;;35.60;8.00;;;;;;10438917;28;20688;-74
2022/07/14 15:21:56;;;;;;;1.77;1.23;;;35.60;8.00;;;;;;10440219;28;20289;-74
2022/07/14 15:27:01;;;;;;;1.60;1.50;;;35.70;8.00;;;;;;10441638;28;20221;-73
2022/07/14 15:32:20;;;;;;;3.43;1.63;;;35.70;7.70;;;;;;10439353;28;20239;-74
2022/07/14 15:37:23;;;;;;;1.73;1.53;;;35.80;8.00;;;;;;10436422;28;20694;-74
2022/07/14 15:42:27;;;;;;;2.07;1.63;;;35.80;8.00;;;;;;10438115;28;20709;-73
2022/07/14 15:47:31;;;;;;;1.67;1.57;;;35.90;7.80;;;;;;10440837;28;20230;-74
2022/07/14 15:52:36;;;;;;;1.90;1.70;;;36.00;8.20;;;;;;10435335;28;20600;-73
2022/07/14 15:57:42;;;;;;;2.37;1.87;;;36.10;7.90;;;;;;10437857;28;20818;-74
2022/07/14 16:02:45;;;;;;;1.77;1.67;;;36.10;7.40;;;;;;10434016;28;20570;-74
2022/07/14 16:07:49;;;;;;;1.77;1.60;;;36.10;7.70;;;;;;10438352;28;20234;-74
2022/07/14 16:12:54;;;;;;;1.63;1.53;;;36.00;7.80;;;;;;10435433;28;20232;-74
2022/07/14 16:17:57;;;;;;;1.70;1.60;;;36.00;7.80;;;;;;10436654;28;20222;-75
2022/07/14 16:23:03;;;;;;;2.97;1.70;;;36.00;8.00;;;;;;10435822;28;20271;-74
2022/07/14 16:28:07;;;;;;;1.70;1.60;;;36.00;8.20;;;;;;10438875;28;20736;-74
2022/07/14 16:33:12;;;;;;;1.70;1.60;;;36.00;8.00;;;;;;10436949;28;20234;-74
2022/07/14 16:38:16;;;;;;;3.13;2.00;;;35.90;8.10;;;;;;10433474;28;20224;-73
2022/07/14 16:43:20;;;;;;;1.70;1.60;;;35.90;8.10;;;;;;10434864;28;20240;-73
2022/07/14 16:48:23;;;;;;;1.70;1.60;;;35.90;8.10;;;;;;10431952;28;20603;-73
2022/07/14 16:53:27;;;;;;;1.67;1.50;;;35.90;8.10;;;;;;10435031;28;20228;-73
2022/07/14 16:58:31;;;;;;;2.00;1.90;;;35.80;8.00;;;;;;10432322;28;20220;-73
2022/07/14 17:03:34;;;;;;;2.20;2.00;;;35.80;8.00;;;;;;10435816;28;20308;-73
2022/07/14 17:08:38;;;;;;;2.90;2.00;;;35.60;8.00;;;;;;10433260;28;20258;-73
2022/07/14 17:13:43;;;;;;;3.77;1.80;;;35.50;8.30;;;;;;10438737;28;20278;-73
2022/07/14 17:18:47;;;;;;;2.87;1.77;;;35.40;8.60;;;;;;10433250;28;20699;-73
2022/07/14 17:23:50;;;;;;;1.87;1.57;;;35.10;8.80;;;;;;10434087;28;20240;-73
2022/07/14 17:28:55;;;;;;;2.20;1.67;;;34.90;9.00;;;;;;10434097;28;20235;-74
2022/07/14 17:33:58;;;;;;;2.03;1.73;;;34.80;9.10;;;;;;10424197;28;20564;-73
2022/07/14 17:39:02;;;;;;;2.10;1.90;;;34.80;9.20;;;;;;10433876;28;20221;-74
2022/07/14 17:44:07;;;;;;;2.37;1.67;;;34.70;9.10;;;;;;10428221;28;20279;-72
2022/07/14 17:49:10;;;;;;;2.60;1.50;;;34.70;9.30;;;;;;10429266;28;20615;-73
2022/07/14 17:54:14;;;;;;;1.70;1.60;;;34.60;9.20;;;;;;10430084;28;20732;-73
2022/07/14 17:59:28;;;;;;;3.10;1.63;;;34.50;9.20;;;;;;10436534;28;20233;-73
2022/07/14 18:04:31;;;;;;;2.20;1.47;;;34.50;9.50;;;;;;10432947;28;20228;-73
2022/07/14 18:09:34;;;;;;;3.37;1.77;;;34.30;9.60;;;;;;10431522;28;20234;-73
2022/07/14 18:14:39;;;;;;;2.53;1.77;;;34.30;9.70;;;;;;10425635;28;20229;-73
2022/07/14 18:19:44;;;;;;;2.37;1.50;;;34.20;9.80;;;;;;10432646;28;20237;-72
2022/07/14 18:24:47;;;;;;;1.60;1.50;;;34.20;9.90;;;;;;10432058;28;20228;-73
2022/07/14 18:29:52;;;;;;;2.13;1.50;;;34.10;9.90;;;;;;10429107;28;20326;-73
2022/07/14 18:34:55;;;;;;;1.83;1.50;;;34.10;10.20;;;;;;10431760;28;20722;-75
2022/07/14 18:39:59;;;;;;;2.40;1.60;;;34.00;10.10;;;;;;10430512;28;20220;-73
2022/07/14 18:50:26;;;;;;;2.30;1.50;;;33.80;10.50;;;;;;10425068;28;20705;-73
2022/07/14 18:55:29;;;;;;;1.70;1.60;;;33.70;10.60;;;;;;10426027;28;20230;-73
2022/07/14 19:00:34;;;;;;;2.83;2.10;;;33.60;10.60;;;;;;10431384;28;20248;-73
2022/07/14 19:05:37;;;;;;;2.80;2.60;;;33.50;11.90;;;;;;10425754;28;20674;-73
2022/07/14 19:10:42;;;;;;;2.47;2.20;;;33.20;12.20;;;;;;10432116;28;20229;-74
2022/07/14 19:15:47;;;;;;;3.17;2.70;;;32.80;12.40;;;;;;10433944;28;20795;-73
2022/07/14 19:20:50;;;;;;;3.53;2.73;;;32.50;13.20;;;;;;10433681;28;20228;-72
2022/07/14 19:25:53;;;;;;;4.53;2.80;;;32.20;13.60;;;;;;10424747;28;20329;-73
2022/07/14 19:30:58;;;;;;;2.83;2.63;;;31.90;14.10;;;;;;10430975;28;20710;-73
2022/07/14 19:36:02;;;;;;;3.00;2.73;;;31.60;14.70;;;;;;10431631;28;20225;-72
2022/07/14 19:41:05;;;;;;;3.37;2.67;;;31.30;15.60;;;;;;10431984;28;20213;-72
2022/07/14 19:46:14;;;;;;;2.90;2.70;;;31.00;15.30;;;;;;10426269;28;20229;-72
2022/07/14 19:51:18;;;;;;;3.50;3.27;;;30.70;16.20;;;;;;10430047;28;20244;-72
2022/07/14 19:56:22;;;;;;;4.67;3.30;;;30.40;16.50;;;;;;10430453;28;20236;-73
2022/07/14 20:01:26;;;;;;;3.40;2.93;;;30.10;17.00;;;;;;10436330;28;20256;-73
2022/07/14 20:06:36;;;;;;;3.23;3.00;;;29.70;17.80;;;;;;10436035;28;20231;-73
2022/07/14 20:11:39;;;;;;;3.00;2.70;;;29.40;17.70;;;;;;10439596;28;20236;-73
2022/07/14 20:16:44;;;;;;;5.43;2.67;;;29.10;17.90;;;;;;10437543;28;20225;-73
2022/07/14 20:21:47;;;;;;;3.40;2.90;;;29.00;18.70;;;;;;10439402;28;20307;-73
2022/07/14 20:26:51;;;;;;;3.70;2.73;;;28.80;18.20;;;;;;10429231;28;20742;-73
2022/07/14 20:37:16;;;;;;;4.53;2.60;;;28.60;18.70;;;;;;10441480;28;20247;-74
2022/07/14 20:42:19;;;;;;;3.20;2.50;;;28.50;18.40;;;;;;10441051;28;20231;-73
2022/07/14 20:47:26;;;;;;;2.73;2.53;;;28.30;18.40;;;;;;10441666;28;20221;-74
2022/07/14 20:52:29;;;;;;;2.40;2.00;;;28.20;18.10;;;;;;10440604;28;20225;-74
2022/07/14 20:57:32;;;;;;;2.27;2.07;;;28.10;17.80;;;;;;10441083;28;20250;-73
2022/07/14 21:02:37;;;;;;;3.63;2.33;;;28.00;17.70;;;;;;10438258;28;20704;-73
2022/07/14 21:07:40;;;;;;;4.60;2.40;;;28.00;18.20;;;;;;10438616;28;20280;-73
2022/07/14 21:12:44;;;;;;;2.47;2.33;;;27.90;18.10;;;;;;10439719;28;20225;-73
2022/07/14 21:17:48;;;;;;;3.77;2.40;;;27.90;18.10;;;;;;10438144;28;20217;-73
2022/07/14 21:22:51;;;;;;;2.50;2.30;;;27.80;18.40;;;;;;10443534;28;20232;-73
2022/07/14 21:27:54;;;;;;;2.73;2.53;;;27.70;18.10;;;;;;10433075;28;20225;-73
2022/07/14 21:33:00;;;;;;;2.80;2.60;;;27.70;18.10;;;;;;10436836;28;20228;-73
2022/07/14 21:38:03;;;;;;;2.70;2.50;;;27.60;18.40;;;;;;10438394;28;20225;-73
2022/07/14 21:43:06;;;;;;;2.73;2.57;;;27.50;18.30;;;;;;10437218;28;20312;-73
2022/07/14 21:48:11;;;;;;;3.03;2.70;;;27.40;18.60;;;;;;10423590;28;20224;-73
2022/07/14 21:53:14;;;;;;;2.90;2.70;;;27.20;18.90;;;;;;10429848;28;20233;-73
2022/07/14 21:58:17;;;;;;;3.13;2.87;;;27.10;18.70;;;;;;10427995;28;20224;-73
2022/07/14 22:03:21;;;;;;;2.93;2.73;;;27.00;19.10;;;;;;10433336;28;21033;-73
2022/07/14 22:08:25;;;;;;;3.07;2.60;;;26.90;19.50;;;;;;10428310;28;20616;-73
2022/07/14 22:13:28;;;;;;;3.20;2.90;;;26.90;19.50;;;;;;10429562;28;20235;-73
2022/07/14 22:18:33;;;;;;;2.90;2.60;;;26.80;19.50;;;;;;10421881;28;20685;-73
2022/07/14 22:23:36;;;;;;;3.03;2.63;;;26.70;19.40;;;;;;10425760;28;20235;-74
2022/07/14 22:28:40;;;;;;;5.43;3.40;;;26.60;19.40;;;;;;10420616;28;20233;-73
2022/07/14 22:33:44;;;;;;;3.07;2.57;;;26.60;19.40;;;;;;10422288;28;20229;-73
2022/07/14 22:38:47;;;;;;;3.37;2.60;;;26.50;19.90;;;;;;10426110;28;20229;-74
2022/07/14 22:43:51;;;;;;;2.80;2.43;;;26.50;19.30;;;;;;10430532;28;20228;-73
2022/07/14 22:48:56;;;;;;;2.93;2.73;;;26.50;19.70;;;;;;10427625;28;20224;-73
2022/07/14 22:54:05;;;;;;;2.83;2.63;;;26.40;20.10;;;;;;10430686;28;20217;-73
2022/07/14 22:59:08;;;;;;;3.17;2.27;;;26.30;19.90;;;;;;10437266;28;20294;-73
2022/07/14 23:04:13;;;;;;;2.97;2.77;;;26.20;19.90;;;;;;10433848;28;20347;-73
2022/07/14 23:09:19;;;;;;;3.53;2.80;;;26.20;20.30;;;;;;10435816;28;20684;-74
2022/07/14 23:14:22;;;;;;;2.80;2.60;;;26.10;20.00;;;;;;10436928;28;20228;-73
2022/07/14 23:19:27;;;;;;;4.90;2.80;;;26.00;20.10;;;;;;10430157;28;20575;-73
2022/07/14 23:24:30;;;;;;;3.90;2.70;;;26.00;20.50;;;;;;10432083;28;20733;-73
2022/07/14 23:29:33;;;;;;;4.03;2.90;;;25.90;20.20;;;;;;10427252;28;20713;-73
2022/07/14 23:34:38;;;;;;;3.10;2.90;;;25.90;20.30;;;;;;10427863;28;20220;-73
2022/07/14 23:39:42;;;;;;;3.00;2.80;;;25.80;20.50;;;;;;10434886;28;20224;-73
2022/07/14 23:44:45;;;;;;;2.73;2.47;;;25.70;20.30;;;;;;10432584;28;20232;-73
2022/07/14 23:49:49;;;;;;;2.83;2.60;;;25.60;20.30;;;;;;10428921;28;20236;-73
2022/07/14 23:54:53;;;;;;;4.17;2.90;;;25.60;20.70;;;;;;10431815;28;20221;-73
2022/07/14 23:59:56;;;;;;;2.90;2.70;;;25.50;20.50;;;;;;10435381;28;20225;-73
